Time;durP1;ratioP1;P1;durP2;ratioP2;P2;SDS_P1;SDS_P2;PMS_P1;PMS_P2;Temp;Humidity;BMP_temperature;BMP_pressure;BME280_temperature;BME280_humidity;BME280_pressure;Samples;Min_cycle;Max_cycle;Signal;HPM_P1;HPM_P2
2023/06/30 00:01:27;;;;;;;38.40;6.13;;;27.60;52.60;;;;;;5035103;28;20206;-64
2023/06/30 00:03:54;;;;;;;57.73;7.67;;;27.60;52.60;;;;;;5036137;28;21011;-65
2023/06/30 00:06:21;;;;;;;22.60;4.47;;;27.60;52.60;;;;;;5023991;28;20215;-65
2023/06/30 00:08:49;;;;;;;22.77;4.93;;;27.60;52.60;;;;;;5037566;28;20238;-65
2023/06/30 00:11:19;;;;;;;24.47;5.00;;;27.50;52.40;;;;;;5038209;28;20301;-65
2023/06/30 00:13:46;;;;;;;30.07;5.60;;;27.50;52.40;;;;;;5041876;28;20207;-65
2023/06/30 00:16:13;;;;;;;33.77;6.03;;;27.60;52.50;;;;;;5049014;28;20196;-66
2023/06/30 00:18:40;;;;;;;26.37;4.90;;;27.50;52.40;;;;;;5039798;28;20223;-64
2023/06/30 00:21:07;;;;;;;43.33;6.50;;;27.50;52.30;;;;;;5047339;28;20208;-65
2023/06/30 00:23:34;;;;;;;44.37;6.57;;;27.50;52.30;;;;;;5046421;28;20204;-68
2023/06/30 00:26:02;;;;;;;21.00;4.73;;;27.50;52.30;;;;;;5050011;28;20200;-66
2023/06/30 00:28:29;;;;;;;38.53;5.90;;;27.50;52.30;;;;;;5037392;28;20213;-64
2023/06/30 00:30:56;;;;;;;26.53;5.07;;;27.50;52.30;;;;;;5046619;28;20211;-64
2023/06/30 00:33:23;;;;;;;23.33;5.13;;;27.50;52.30;;;;;;5048036;28;20200;-64
2023/06/30 00:35:49;;;;;;;30.43;5.30;;;27.50;52.30;;;;;;5046545;28;20208;-65
2023/06/30 00:38:16;;;;;;;35.17;5.97;;;27.50;52.30;;;;;;5037458;28;21582;-64
2023/06/30 00:40:43;;;;;;;32.53;5.87;;;27.50;52.30;;;;;;5049773;28;20202;-65
2023/06/30 00:43:11;;;;;;;22.53;5.17;;;27.40;52.20;;;;;;5045163;28;20212;-64
2023/06/30 00:45:38;;;;;;;38.03;6.23;;;27.40;52.20;;;;;;5028746;28;20214;-65
2023/06/30 00:48:06;;;;;;;25.47;4.90;;;27.50;52.30;;;;;;5027487;28;20201;-64
2023/06/30 00:50:33;;;;;;;25.43;5.10;;;27.40;52.20;;;;;;5038605;28;20215;-64
2023/06/30 00:53:00;;;;;;;28.40;5.53;;;27.40;52.20;;;;;;5041732;28;20223;-65
2023/06/30 00:55:27;;;;;;;26.50;5.27;;;27.40;52.20;;;;;;5028807;28;20201;-66
2023/06/30 00:57:54;;;;;;;27.10;5.00;;;27.40;52.20;;;;;;5027964;28;20199;-63
2023/06/30 01:00:24;;;;;;;51.13;7.03;;;27.40;52.20;;;;;;5022339;28;20233;-69
2023/06/30 01:03:01;;;;;;;31.50;5.77;;;27.40;52.20;;;;;;5022737;28;20201;-70
2023/06/30 01:05:36;;;;;;;31.23;5.60;;;27.30;52.10;;;;;;5020943;28;20266;-64
2023/06/30 01:08:09;;;;;;;23.07;5.00;;;27.30;52.10;;;;;;5031386;28;20205;-69
2023/06/30 01:10:36;;;;;;;22.10;4.67;;;27.30;52.10;;;;;;5013418;28;20255;-65
2023/06/30 01:13:05;;;;;;;19.77;4.67;;;27.40;52.80;;;;;;5016955;28;20211;-67
2023/06/30 01:15:34;;;;;;;42.80;6.60;;;27.30;52.20;;;;;;5013983;28;20206;-65
2023/06/30 01:18:02;;;;;;;23.47;5.40;;;27.30;52.10;;;;;;5010342;28;20252;-64
2023/06/30 01:20:32;;;;;;;20.33;4.67;;;27.30;52.10;;;;;;5011024;28;20209;-65
2023/06/30 01:23:07;;;;;;;41.30;6.63;;;27.30;52.10;;;;;;5010703;28;20796;-66
2023/06/30 01:25:34;;;;;;;22.40;4.67;;;27.30;52.10;;;;;;5017752;28;20567;-66
2023/06/30 01:28:03;;;;;;;53.10;7.67;;;27.30;52.10;;;;;;5019082;28;20216;-65
2023/06/30 01:30:31;;;;;;;30.60;5.57;;;27.30;52.10;;;;;;5034479;28;20225;-64
2023/06/30 01:33:00;;;;;;;46.27;6.43;;;27.30;52.10;;;;;;5036941;28;20217;-64
2023/06/30 01:35:27;;;;;;;26.37;5.07;;;27.20;52.10;;;;;;5042708;28;20205;-66
2023/06/30 01:37:55;;;;;;;23.90;4.80;;;27.20;52.10;;;;;;5018703;28;20209;-66
2023/06/30 01:40:22;;;;;;;23.93;4.83;;;27.20;52.10;;;;;;5039268;28;20568;-66
2023/06/30 01:42:53;;;;;;;27.40;5.53;;;27.20;52.10;;;;;;5039800;28;20223;-64
2023/06/30 01:45:21;;;;;;;40.40;6.67;;;27.20;52.10;;;;;;5027372;28;20827;-64
2023/06/30 01:47:49;;;;;;;36.17;5.97;;;27.20;52.10;;;;;;5014027;28;20198;-64
2023/06/30 01:50:18;;;;;;;23.37;4.60;;;27.20;52.10;;;;;;5009692;28;20237;-64
2023/06/30 01:52:45;;;;;;;21.70;4.77;;;27.20;52.10;;;;;;5011461;28;20206;-63
2023/06/30 01:55:12;;;;;;;27.30;5.17;;;27.20;52.10;;;;;;5009655;28;20527;-64
2023/06/30 01:57:39;;;;;;;30.07;5.53;;;27.20;52.10;;;;;;5009206;28;20616;-63
2023/06/30 02:00:08;;;;;;;21.70;4.77;;;27.20;52.10;;;;;;5009962;28;20210;-64
2023/06/30 02:02:35;;;;;;;21.33;4.53;;;27.20;52.10;;;;;;5018269;28;20204;-64
2023/06/30 02:05:02;;;;;;;30.83;5.53;;;27.20;52.10;;;;;;5031266;28;20211;-64
2023/06/30 02:07:30;;;;;;;33.70;5.50;;;27.10;52.00;;;;;;5029062;28;20208;-63
2023/06/30 02:09:57;;;;;;;27.67;5.13;;;27.10;52.00;;;;;;5017217;28;20592;-63
2023/06/30 02:12:24;;;;;;;25.37;5.17;;;27.10;52.00;;;;;;5017373;28;20243;-64
2023/06/30 02:14:51;;;;;;;25.47;4.70;;;27.10;52.00;;;;;;5033046;28;20546;-63
2023/06/30 02:17:26;;;;;;;33.73;5.63;;;27.10;52.10;;;;;;5031304;28;20201;-63
2023/06/30 02:19:52;;;;;;;60.27;7.80;;;27.10;52.00;;;;;;5021626;28;20204;-64
2023/06/30 02:22:19;;;;;;;29.13;5.30;;;27.10;52.00;;;;;;5023161;28;20201;-64
2023/06/30 02:24:48;;;;;;;43.73;6.87;;;27.10;52.00;;;;;;5015909;28;20197;-67
2023/06/30 02:27:16;;;;;;;37.40;6.27;;;27.10;52.00;;;;;;5029389;28;20207;-63
2023/06/30 02:29:43;;;;;;;30.73;5.77;;;27.00;52.00;;;;;;5037401;28;20249;-66
2023/06/30 02:32:10;;;;;;;23.30;4.87;;;27.10;52.00;;;;;;5013313;28;20227;-63
2023/06/30 02:34:37;;;;;;;19.80;4.50;;;27.10;52.00;;;;;;5018377;28;21027;-68
2023/06/30 02:37:04;;;;;;;49.43;7.10;;;27.00;52.00;;;;;;5021384;28;20201;-66
2023/06/30 02:39:31;;;;;;;20.10;4.50;;;27.10;52.00;;;;;;5037462;28;20211;-65
2023/06/30 02:42:00;;;;;;;44.63;6.47;;;27.00;52.00;;;;;;5030522;28;20196;-63
2023/06/30 02:44:26;;;;;;;27.20;5.27;;;27.00;52.00;;;;;;5025964;28;20240;-63
2023/06/30 02:46:53;;;;;;;32.87;5.47;;;27.00;52.30;;;;;;5026304;28;20213;-63
2023/06/30 02:49:20;;;;;;;32.80;5.57;;;27.00;52.00;;;;;;5015432;28;20217;-63
2023/06/30 02:51:47;;;;;;;29.47;5.77;;;27.00;52.00;;;;;;5013185;28;20197;-65
2023/06/30 02:54:14;;;;;;;46.67;6.83;;;27.00;52.00;;;;;;5011210;28;20213;-65
2023/06/30 02:56:41;;;;;;;20.93;4.57;;;27.00;52.00;;;;;;5008911;28;20212;-66
2023/06/30 02:59:09;;;;;;;27.00;5.33;;;27.00;52.60;;;;;;5009321;28;20577;-64
2023/06/30 03:01:36;;;;;;;32.20;5.53;;;27.00;52.00;;;;;;5019409;28;20201;-64
2023/06/30 03:04:03;;;;;;;22.00;4.60;;;27.00;52.00;;;;;;5016369;28;20197;-66
2023/06/30 03:06:30;;;;;;;29.03;5.37;;;27.00;52.00;;;;;;5022146;28;20236;-63
2023/06/30 03:08:57;;;;;;;51.13;7.20;;;27.00;52.60;;;;;;5024688;28;20208;-64
2023/06/30 03:11:25;;;;;;;23.23;4.97;;;26.90;51.90;;;;;;5023271;28;20213;-64
2023/06/30 03:13:52;;;;;;;19.90;4.60;;;26.90;51.90;;;;;;5027878;28;20212;-67
2023/06/30 03:16:20;;;;;;;24.80;4.77;;;26.90;51.90;;;;;;5028193;28;20205;-63
2023/06/30 03:18:47;;;;;;;43.67;6.70;;;26.90;51.90;;;;;;5016604;28;20720;-63
2023/06/30 03:21:14;;;;;;;33.77;5.77;;;26.90;51.90;;;;;;5024446;28;20982;-64
2023/06/30 03:23:41;;;;;;;27.60;4.93;;;26.90;51.90;;;;;;5028930;28;20223;-66
2023/06/30 03:26:08;;;;;;;26.70;5.07;;;26.90;52.00;;;;;;5039470;28;20199;-63
2023/06/30 03:28:36;;;;;;;46.70;6.93;;;26.90;51.90;;;;;;5022900;28;20201;-64
2023/06/30 03:31:03;;;;;;;24.20;5.03;;;26.90;51.90;;;;;;5027135;28;20282;-63
2023/06/30 03:33:31;;;;;;;40.63;6.43;;;26.90;51.90;;;;;;5014060;28;20289;-66
2023/06/30 03:35:58;;;;;;;24.03;4.97;;;26.90;51.90;;;;;;5027561;28;20216;-63
2023/06/30 03:38:25;;;;;;;24.60;5.17;;;26.90;51.90;;;;;;5027220;28;20204;-65
2023/06/30 03:40:51;;;;;;;23.33;5.00;;;26.90;52.10;;;;;;5022672;28;20210;-65
2023/06/30 03:43:21;;;;;;;38.63;6.07;;;26.90;51.90;;;;;;5030891;28;20661;-63
2023/06/30 03:45:48;;;;;;;25.33;5.17;;;26.80;51.90;;;;;;5021336;28;20201;-64
2023/06/30 03:48:14;;;;;;;23.50;4.87;;;26.80;51.90;;;;;;5032558;28;20209;-66
2023/06/30 03:50:43;;;;;;;42.33;6.73;;;26.80;51.80;;;;;;5016050;28;20229;-63
2023/06/30 03:53:10;;;;;;;34.87;5.90;;;26.80;51.80;;;;;;5011547;28;20202;-65
2023/06/30 03:55:37;;;;;;;23.23;4.83;;;26.80;51.90;;;;;;5016794;28;20201;-69
2023/06/30 03:58:04;;;;;;;34.90;5.63;;;26.90;51.90;;;;;;5027509;28;20204;-65
2023/06/30 04:00:32;;;;;;;47.23;6.90;;;26.80;51.90;;;;;;5012613;28;20210;-65
2023/06/30 04:02:59;;;;;;;26.30;5.33;;;26.80;51.90;;;;;;5012176;28;20189;-65
2023/06/30 04:05:26;;;;;;;22.70;5.20;;;26.80;51.90;;;;;;5017101;28;20212;-66
2023/06/30 04:07:54;;;;;;;35.17;5.87;;;26.80;52.00;;;;;;5012524;28;20201;-70
2023/06/30 04:10:20;;;;;;;30.30;5.63;;;26.80;51.90;;;;;;5007243;28;20235;-67
2023/06/30 04:12:47;;;;;;;43.90;6.53;;;26.80;52.00;;;;;;5013129;28;20205;-66
2023/06/30 04:15:14;;;;;;;41.43;6.47;;;26.80;52.00;;;;;;5011593;28;20201;-65
2023/06/30 04:17:41;;;;;;;23.83;5.20;;;26.80;52.00;;;;;;5015787;28;20197;-66
2023/06/30 04:20:09;;;;;;;42.83;6.47;;;26.80;52.00;;;;;;5010630;28;20773;-65
2023/06/30 04:22:37;;;;;;;40.17;6.20;;;26.80;52.00;;;;;;5021463;28;20215;-67
2023/06/30 04:25:07;;;;;;;20.33;4.87;;;26.80;52.00;;;;;;5006932;28;20210;-69
2023/06/30 04:27:34;;;;;;;24.50;5.13;;;26.80;52.00;;;;;;5025244;28;20200;-64
2023/06/30 04:30:01;;;;;;;29.77;5.27;;;26.80;52.00;;;;;;5044108;28;20224;-67
2023/06/30 04:32:28;;;;;;;48.07;7.10;;;26.80;52.00;;;;;;5028082;28;20198;-68
2023/06/30 04:34:58;;;;;;;27.97;5.40;;;26.70;51.90;;;;;;5023181;28;20615;-64
2023/06/30 04:37:28;;;;;;;23.83;4.97;;;26.70;51.90;;;;;;5033295;28;20213;-64
2023/06/30 04:39:56;;;;;;;22.40;4.93;;;26.70;52.00;;;;;;5022644;28;20284;-64
2023/06/30 04:42:24;;;;;;;24.90;5.10;;;26.70;51.90;;;;;;5031245;28;20255;-66
2023/06/30 04:44:51;;;;;;;53.83;7.53;;;26.70;51.90;;;;;;5017311;28;20661;-64
2023/06/30 04:47:18;;;;;;;46.30;6.90;;;26.70;51.90;;;;;;5017903;28;20463;-63
2023/06/30 04:49:45;;;;;;;31.63;5.57;;;26.60;52.10;;;;;;5035333;28;20220;-63
2023/06/30 04:52:13;;;;;;;24.33;5.27;;;26.60;52.20;;;;;;5041572;28;20322;-66
2023/06/30 04:54:41;;;;;;;48.37;7.07;;;26.70;52.20;;;;;;5037212;28;20200;-64
2023/06/30 04:57:08;;;;;;;37.60;6.30;;;26.70;52.10;;;;;;5041080;28;20204;-63
2023/06/30 04:59:36;;;;;;;26.43;5.13;;;26.70;52.00;;;;;;5016180;28;20201;-65
2023/06/30 05:02:03;;;;;;;38.30;6.53;;;26.70;51.90;;;;;;5012692;28;20227;-62
2023/06/30 05:04:30;;;;;;;35.03;6.07;;;26.70;51.90;;;;;;5017569;28;20204;-64
2023/06/30 05:06:57;;;;;;;31.20;5.70;;;26.70;51.80;;;;;;5019419;28;20201;-63
2023/06/30 05:09:24;;;;;;;40.67;6.73;;;26.70;51.80;;;;;;5012442;28;20227;-63
2023/06/30 05:11:51;;;;;;;50.80;7.33;;;26.70;51.80;;;;;;5014891;28;20229;-65
2023/06/30 05:14:18;;;;;;;20.97;5.03;;;26.70;51.80;;;;;;5019064;28;20201;-65
2023/06/30 05:16:47;;;;;;;28.00;5.83;;;26.70;51.80;;;;;;5015221;28;20209;-63
2023/06/30 05:19:14;;;;;;;50.37;7.10;;;26.70;51.80;;;;;;5010607;28;20220;-62
2023/06/30 05:21:41;;;;;;;21.17;4.90;;;26.70;51.80;;;;;;5011129;28;20446;-63
2023/06/30 05:24:08;;;;;;;24.97;4.77;;;26.70;51.80;;;;;;5025143;28;20208;-67
2023/06/30 05:26:34;;;;;;;42.63;6.83;;;26.70;51.80;;;;;;5027455;28;20203;-63
2023/06/30 05:29:01;;;;;;;29.77;5.23;;;26.70;51.80;;;;;;5026322;28;20207;-63
2023/06/30 05:31:28;;;;;;;45.37;6.87;;;26.70;51.80;;;;;;5012370;28;20217;-63
2023/06/30 05:33:56;;;;;;;39.10;6.33;;;26.70;51.80;;;;;;5036589;28;20200;-63
2023/06/30 05:36:23;;;;;;;25.37;5.23;;;26.70;51.80;;;;;;5018285;28;20624;-66
2023/06/30 05:38:50;;;;;;;22.20;4.97;;;26.70;51.80;;;;;;5034519;28;20262;-67
2023/06/30 05:41:17;;;;;;;26.03;5.03;;;26.70;51.80;;;;;;5028357;28;20767;-66
2023/06/30 05:43:44;;;;;;;27.50;5.20;;;26.70;51.80;;;;;;5030395;28;20201;-68
2023/06/30 05:46:10;;;;;;;27.40;5.80;;;26.70;51.80;;;;;;5023324;28;20215;-70
2023/06/30 05:48:37;;;;;;;21.73;5.00;;;26.70;51.80;;;;;;5032483;28;20209;-66
2023/06/30 05:51:05;;;;;;;35.00;6.00;;;26.70;51.80;;;;;;5014340;28;20240;-63
2023/06/30 05:53:32;;;;;;;21.13;4.87;;;26.70;51.80;;;;;;5010106;28;20202;-66
2023/06/30 05:55:59;;;;;;;27.13;5.37;;;26.70;51.80;;;;;;5019161;28;20204;-68
2023/06/30 05:58:26;;;;;;;27.17;5.70;;;26.70;51.80;;;;;;5028390;28;20197;-63
2023/06/30 06:00:53;;;;;;;26.10;5.50;;;26.70;51.80;;;;;;5015340;28;20264;-65
2023/06/30 06:03:20;;;;;;;45.00;6.77;;;26.70;51.80;;;;;;5009717;28;20962;-65
2023/06/30 06:05:47;;;;;;;41.93;6.87;;;26.70;51.80;;;;;;5011654;28;20205;-68
2023/06/30 06:08:15;;;;;;;45.93;6.80;;;26.70;51.80;;;;;;5028310;28;20201;-63
2023/06/30 06:10:43;;;;;;;21.73;4.93;;;26.70;51.80;;;;;;5013771;28;20228;-66
2023/06/30 06:13:10;;;;;;;27.37;5.03;;;26.70;51.80;;;;;;5028964;28;20205;-63
2023/06/30 06:15:37;;;;;;;31.60;5.60;;;26.70;51.80;;;;;;5016802;28;20207;-63
2023/06/30 06:18:04;;;;;;;28.70;5.13;;;26.70;51.80;;;;;;5021032;28;20232;-65
2023/06/30 06:20:30;;;;;;;22.93;5.27;;;26.70;51.90;;;;;;5015932;28;20216;-63
2023/06/30 06:22:57;;;;;;;21.07;4.73;;;26.70;51.90;;;;;;5014985;28;20201;-63
2023/06/30 06:25:25;;;;;;;21.70;4.90;;;26.80;52.00;;;;;;5022429;28;20200;-65
2023/06/30 06:27:52;;;;;;;25.67;5.03;;;26.80;51.90;;;;;;5021569;28;20211;-66
2023/06/30 06:30:19;;;;;;;27.17;5.43;;;26.80;51.90;;;;;;5030300;28;20228;-64
2023/06/30 06:32:46;;;;;;;49.93;7.30;;;26.80;51.90;;;;;;5030809;28;20266;-63
2023/06/30 06:35:13;;;;;;;19.13;4.50;;;26.80;51.90;;;;;;5030778;28;20207;-63
2023/06/30 06:37:40;;;;;;;33.90;5.90;;;26.80;51.90;;;;;;5018867;28;20217;-62
2023/06/30 06:40:08;;;;;;;26.30;5.07;;;26.80;51.80;;;;;;5021453;28;20201;-62
2023/06/30 06:42:37;;;;;;;27.43;5.40;;;26.90;51.90;;;;;;5045764;28;20215;-63
2023/06/30 06:45:04;;;;;;;24.03;4.90;;;26.80;51.80;;;;;;5022629;28;20572;-63
2023/06/30 06:48:08;;;;;;;40.40;6.20;;;26.90;51.90;;;;;;5030962;28;20282;-67
2023/06/30 06:50:35;;;;;;;23.77;4.90;;;26.90;51.90;;;;;;5009538;28;20233;-69
2023/06/30 06:53:02;;;;;;;28.00;5.27;;;26.90;51.90;;;;;;5030736;28;20205;-64
2023/06/30 06:55:29;;;;;;;38.13;5.97;;;26.90;51.90;;;;;;5012987;28;20209;-63
2023/06/30 06:57:57;;;;;;;26.90;5.50;;;26.90;51.90;;;;;;5020969;28;20197;-64
2023/06/30 07:00:24;;;;;;;29.33;5.67;;;26.90;51.90;;;;;;5013385;28;20197;-66
2023/06/30 07:02:51;;;;;;;28.97;5.37;;;27.00;52.00;;;;;;5015574;28;20201;-63
2023/06/30 07:05:18;;;;;;;31.80;5.60;;;27.00;52.00;;;;;;5021355;28;20207;-63
2023/06/30 07:07:45;;;;;;;49.47;7.03;;;27.00;52.00;;;;;;5028399;28;20211;-64
2023/06/30 07:10:12;;;;;;;37.97;6.27;;;27.00;52.00;;;;;;5015209;28;20648;-63
2023/06/30 07:12:39;;;;;;;43.30;6.57;;;27.00;52.00;;;;;;5025458;28;20653;-65
2023/06/30 07:15:08;;;;;;;27.80;5.47;;;27.00;51.90;;;;;;5008838;28;20205;-65
2023/06/30 07:17:35;;;;;;;28.17;5.37;;;27.00;51.90;;;;;;5023957;28;20197;-63
2023/06/30 07:20:02;;;;;;;25.93;5.03;;;27.00;52.00;;;;;;5016920;28;20205;-66
2023/06/30 07:22:28;;;;;;;26.07;4.77;;;27.00;51.90;;;;;;5025839;28;20677;-65
2023/06/30 07:24:55;;;;;;;24.73;4.80;;;27.00;52.00;;;;;;5021120;28;20193;-63
2023/06/30 07:27:22;;;;;;;25.20;5.17;;;27.00;51.90;;;;;;5014238;28;20209;-63
2023/06/30 07:29:50;;;;;;;26.07;5.27;;;27.00;51.90;;;;;;5022426;28;20673;-63
2023/06/30 07:32:19;;;;;;;26.63;4.93;;;27.10;51.90;;;;;;5023724;28;20315;-67
2023/06/30 07:34:45;;;;;;;26.20;4.80;;;27.10;51.80;;;;;;5011201;28;20193;-65
2023/06/30 07:37:12;;;;;;;43.57;6.73;;;27.10;51.90;;;;;;5006913;28;20209;-68
2023/06/30 07:39:39;;;;;;;32.27;5.47;;;27.10;51.80;;;;;;5010622;28;20284;-64
2023/06/30 07:42:06;;;;;;;34.57;5.77;;;27.10;51.80;;;;;;5024836;28;20204;-64
2023/06/30 07:44:33;;;;;;;20.67;4.57;;;27.10;51.70;;;;;;5011047;28;20237;-64
2023/06/30 07:47:00;;;;;;;27.47;5.33;;;27.10;51.70;;;;;;5016988;28;20210;-63
2023/06/30 07:49:28;;;;;;;31.67;5.53;;;27.10;52.20;;;;;;5007187;28;20213;-63
2023/06/30 07:51:55;;;;;;;18.50;4.13;;;27.10;51.60;;;;;;5025116;28;20224;-65
2023/06/30 07:54:22;;;;;;;24.30;4.73;;;27.10;51.60;;;;;;5029388;28;20205;-63
2023/06/30 07:56:49;;;;;;;43.13;6.70;;;27.10;51.60;;;;;;5024320;28;20209;-63
2023/06/30 07:59:16;;;;;;;24.63;5.07;;;27.20;51.70;;;;;;5008587;28;20202;-63
2023/06/30 08:01:43;;;;;;;29.67;5.17;;;27.20;51.60;;;;;;5023296;28;20746;-64
2023/06/30 08:04:11;;;;;;;23.70;4.93;;;27.20;51.60;;;;;;5019411;28;20618;-62
2023/06/30 08:06:39;;;;;;;29.10;5.50;;;27.20;51.60;;;;;;5024286;28;20295;-63
2023/06/30 08:09:06;;;;;;;29.70;5.70;;;27.20;51.50;;;;;;5026601;28;20200;-62
2023/06/30 08:11:32;;;;;;;29.70;5.80;;;27.20;51.50;;;;;;5028253;28;20227;-63
2023/06/30 08:14:02;;;;;;;25.80;5.30;;;27.20;51.50;;;;;;5015107;28;20220;-67
2023/06/30 08:16:28;;;;;;;31.60;6.27;;;27.20;51.50;;;;;;5013963;28;20206;-65
2023/06/30 08:18:55;;;;;;;41.17;7.27;;;27.20;51.50;;;;;;5029350;28;20256;-66
2023/06/30 08:21:23;;;;;;;41.50;6.87;;;27.20;51.50;;;;;;5021336;28;20658;-67
2023/06/30 08:23:51;;;;;;;37.60;6.87;;;27.20;51.50;;;;;;5049509;28;20206;-64
2023/06/30 08:26:18;;;;;;;27.80;6.33;;;27.20;51.40;;;;;;5025891;28;20204;-64
2023/06/30 08:28:45;;;;;;;26.43;6.60;;;27.30;50.80;;;;;;5017945;28;20201;-67
2023/06/30 08:31:12;;;;;;;28.90;7.17;;;27.20;49.90;;;;;;5022455;28;20244;-65
2023/06/30 08:33:39;;;;;;;33.30;7.73;;;27.20;49.40;;;;;;5010916;28;20227;-64
2023/06/30 08:36:06;;;;;;;42.93;8.47;;;27.20;48.80;;;;;;5022866;28;20213;-64
2023/06/30 08:38:33;;;;;;;23.23;6.73;;;27.20;48.50;;;;;;5011934;28;20205;-63
2023/06/30 08:41:03;;;;;;;34.90;7.23;;;27.10;48.20;;;;;;5018972;28;20305;-63
2023/06/30 08:43:32;;;;;;;47.77;9.03;;;27.10;47.70;;;;;;5024988;28;20291;-64
2023/06/30 08:46:02;;;;;;;53.53;8.53;;;27.00;48.00;;;;;;5034208;28;20240;-63
2023/06/30 08:48:31;;;;;;;28.87;6.63;;;27.00;48.50;;;;;;5030629;28;20208;-64
2023/06/30 08:50:59;;;;;;;29.97;6.97;;;26.90;48.80;;;;;;5027444;28;20601;-63
2023/06/30 08:53:28;;;;;;;38.33;7.17;;;26.90;49.20;;;;;;5033900;28;20208;-64
2023/06/30 08:56:04;;;;;;;29.70;6.97;;;26.80;49.30;;;;;;5035081;28;20211;-64
2023/06/30 08:58:32;;;;;;;35.47;6.97;;;26.80;49.60;;;;;;5031384;28;20203;-64
2023/06/30 09:01:00;;;;;;;33.47;7.10;;;26.70;49.60;;;;;;5024554;28;20197;-64
2023/06/30 09:03:27;;;;;;;39.30;7.27;;;26.70;49.80;;;;;;5020052;28;20665;-64
2023/06/30 09:05:56;;;;;;;46.33;7.97;;;26.70;49.90;;;;;;5032543;28;20208;-64
2023/06/30 09:08:24;;;;;;;38.63;7.30;;;26.70;50.00;;;;;;5036471;28;20198;-64
2023/06/30 09:10:52;;;;;;;37.00;7.13;;;26.70;50.00;;;;;;5013291;28;20198;-64
2023/06/30 09:13:21;;;;;;;34.33;7.00;;;26.70;50.00;;;;;;5014210;28;20209;-64
2023/06/30 09:15:50;;;;;;;75.60;10.47;;;26.70;50.10;;;;;;5021198;28;20559;-66
2023/06/30 09:18:17;;;;;;;38.30;7.10;;;26.70;50.10;;;;;;5025215;28;20217;-63
2023/06/30 09:20:44;;;;;;;27.20;6.10;;;26.70;50.10;;;;;;5022914;28;20200;-64
2023/06/30 09:23:11;;;;;;;38.10;6.73;;;26.70;50.20;;;;;;5023765;28;20198;-64
2023/06/30 09:25:39;;;;;;;33.07;6.23;;;26.70;50.20;;;;;;5023817;28;20288;-65
2023/06/30 09:28:11;;;;;;;36.07;6.47;;;26.80;50.50;;;;;;5027693;28;20204;-65
2023/06/30 09:30:43;;;;;;;37.07;6.60;;;26.80;50.30;;;;;;5025365;28;20600;-70
2023/06/30 09:33:14;;;;;;;35.67;6.63;;;26.80;50.20;;;;;;5038959;28;20235;-70
2023/06/30 09:35:42;;;;;;;33.03;6.23;;;26.80;50.20;;;;;;5040164;28;20236;-65
2023/06/30 09:38:12;;;;;;;46.37;7.07;;;26.80;50.30;;;;;;5038759;28;20217;-70
2023/06/30 09:40:43;;;;;;;37.73;6.53;;;26.80;50.30;;;;;;5018997;28;20205;-69
2023/06/30 09:43:15;;;;;;;29.10;5.70;;;26.80;50.20;;;;;;5023911;28;20239;-69
2023/06/30 09:45:44;;;;;;;35.37;6.43;;;26.90;50.30;;;;;;5030708;28;20784;-64
2023/06/30 09:48:13;;;;;;;36.87;6.27;;;26.90;48.80;;;;;;5020572;28;20208;-65
2023/06/30 09:50:42;;;;;;;76.20;9.90;;;26.90;48.10;;;;;;5038854;28;20204;-64
2023/06/30 09:53:09;;;;;;;40.50;6.90;;;26.90;48.50;;;;;;5031667;28;20224;-68
2023/06/30 09:55:48;;;;;;;29.77;5.47;;;26.90;48.20;;;;;;5042037;28;20206;-68
2023/06/30 09:58:15;;;;;;;29.80;5.83;;;26.90;47.90;;;;;;5014092;28;20263;-65
2023/06/30 10:00:42;;;;;;;36.13;6.50;;;26.90;48.20;;;;;;5016648;28;20364;-69
2023/06/30 10:03:09;;;;;;;35.00;6.40;;;26.80;48.20;;;;;;5038240;28;20207;-71
2023/06/30 10:05:38;;;;;;;34.27;5.90;;;26.80;48.50;;;;;;5045811;28;20258;-64
2023/06/30 10:08:06;;;;;;;67.60;9.30;;;26.80;48.80;;;;;;5010432;28;20208;-62
2023/06/30 10:10:33;;;;;;;27.97;5.70;;;26.80;49.10;;;;;;5029517;28;20204;-65
2023/06/30 10:13:00;;;;;;;35.13;6.00;;;26.80;49.30;;;;;;5041778;28;20232;-63
2023/06/30 10:15:27;;;;;;;32.33;5.67;;;26.80;49.50;;;;;;5049391;28;20204;-66
2023/06/30 10:17:55;;;;;;;46.03;6.93;;;26.80;49.60;;;;;;5045092;28;20317;-65
2023/06/30 10:20:22;;;;;;;26.47;5.13;;;26.80;49.70;;;;;;5035911;28;20200;-63
2023/06/30 10:22:52;;;;;;;35.43;5.70;;;26.80;49.80;;;;;;5029255;28;20292;-64
2023/06/30 10:25:21;;;;;;;28.67;5.73;;;26.90;50.00;;;;;;5028405;28;20652;-70
2023/06/30 10:27:48;;;;;;;36.03;6.87;;;26.90;50.00;;;;;;5026642;28;20209;-67
2023/06/30 10:30:16;;;;;;;35.17;6.10;;;26.90;49.60;;;;;;5022857;28;20209;-63
2023/06/30 10:32:43;;;;;;;26.20;5.00;;;27.00;49.80;;;;;;5025986;28;20236;-64
2023/06/30 10:35:13;;;;;;;33.07;5.87;;;27.00;49.90;;;;;;5025271;28;20658;-70
2023/06/30 10:37:40;;;;;;;29.17;5.17;;;27.10;50.10;;;;;;5015846;28;20282;-65
2023/06/30 10:40:23;;;;;;;39.87;6.27;;;27.10;50.10;;;;;;5028074;28;20213;-62
2023/06/30 10:42:52;;;;;;;33.23;5.70;;;27.10;50.10;;;;;;5030208;28;20206;-63
2023/06/30 10:45:19;;;;;;;51.97;7.37;;;27.10;50.10;;;;;;5031421;28;20579;-66
2023/06/30 10:47:51;;;;;;;30.00;5.60;;;27.20;50.20;;;;;;5038453;28;20654;-67
2023/06/30 10:50:19;;;;;;;46.60;7.10;;;27.20;50.20;;;;;;5020624;28;20197;-66
2023/06/30 10:52:50;;;;;;;62.93;9.27;;;27.20;50.20;;;;;;5020532;28;20217;-64
2023/06/30 10:55:21;;;;;;;38.60;6.97;;;27.30;50.30;;;;;;5019478;28;20232;-69
2023/06/30 10:57:52;;;;;;;55.23;8.43;;;27.30;50.30;;;;;;5010746;28;20207;-60
2023/06/30 11:00:24;;;;;;;29.47;6.37;;;27.40;50.30;;;;;;5011477;28;20216;-65
2023/06/30 11:02:56;;;;;;;35.93;6.63;;;27.40;50.40;;;;;;5026031;28;20565;-65
2023/06/30 11:05:25;;;;;;;32.67;5.73;;;27.40;50.30;;;;;;5019997;28;20201;-64
2023/06/30 11:07:53;;;;;;;35.97;7.03;;;27.50;50.40;;;;;;5018524;28;20197;-65
2023/06/30 11:10:34;;;;;;;44.27;7.07;;;27.50;50.30;;;;;;5016901;28;20209;-64
2023/06/30 11:13:02;;;;;;;31.03;6.13;;;27.50;50.20;;;;;;5007661;28;20237;-65
2023/06/30 11:15:40;;;;;;;41.43;7.13;;;27.60;50.90;;;;;;5007867;28;20228;-69
2023/06/30 11:18:11;;;;;;;32.97;6.47;;;27.60;50.20;;;;;;5008037;28;20725;-67
2023/06/30 11:20:39;;;;;;;62.30;8.50;;;27.70;50.20;;;;;;5009349;28;20641;-65
2023/06/30 11:23:07;;;;;;;27.67;5.67;;;27.70;50.20;;;;;;5027401;28;20231;-63
2023/06/30 11:25:35;;;;;;;71.47;9.30;;;27.70;50.20;;;;;;5026637;28;20214;-64
2023/06/30 11:28:04;;;;;;;39.23;6.37;;;27.70;50.10;;;;;;5027052;28;20262;-65
2023/06/30 11:30:36;;;;;;;40.83;6.37;;;27.70;50.10;;;;;;5026069;28;20219;-64
2023/06/30 11:33:05;;;;;;;27.93;5.23;;;27.80;50.20;;;;;;5010039;28;20233;-65
2023/06/30 11:35:33;;;;;;;39.33;6.63;;;27.80;50.20;;;;;;5014320;28;20201;-64
2023/06/30 11:38:00;;;;;;;32.20;5.70;;;27.80;50.20;;;;;;5026805;28;20220;-63
2023/06/30 11:40:27;;;;;;;36.13;6.23;;;27.80;50.20;;;;;;5012131;28;20209;-63
2023/06/30 11:42:56;;;;;;;56.40;7.93;;;27.80;50.20;;;;;;5007926;28;20201;-64
2023/06/30 11:45:27;;;;;;;24.37;4.83;;;27.90;50.20;;;;;;5026781;28;20237;-64
2023/06/30 11:47:54;;;;;;;34.37;5.90;;;27.90;50.20;;;;;;5015247;28;20296;-65
2023/06/30 11:50:21;;;;;;;28.07;5.23;;;27.90;50.20;;;;;;5019865;28;20978;-66
2023/06/30 11:52:49;;;;;;;30.40;6.03;;;27.90;50.20;;;;;;5014926;28;20224;-64
2023/06/30 11:55:17;;;;;;;28.83;5.17;;;27.90;50.10;;;;;;5015271;28;20212;-64
2023/06/30 11:57:46;;;;;;;33.40;5.80;;;28.00;50.20;;;;;;5027575;28;20989;-64
2023/06/30 12:00:17;;;;;;;21.27;4.97;;;28.00;50.20;;;;;;5023185;28;20213;-63
2023/06/30 12:02:46;;;;;;;25.10;5.03;;;28.00;50.20;;;;;;5025246;28;20211;-64
2023/06/30 12:05:15;;;;;;;27.63;5.03;;;28.00;50.20;;;;;;5027850;28;20730;-63
2023/06/30 12:07:42;;;;;;;45.13;6.87;;;28.00;50.10;;;;;;5026084;28;20204;-69
2023/06/30 12:10:10;;;;;;;27.13;5.33;;;28.10;50.10;;;;;;5013338;28;20200;-64
2023/06/30 12:12:38;;;;;;;25.40;4.97;;;28.10;50.10;;;;;;5017742;28;20224;-67
2023/06/30 12:15:07;;;;;;;23.23;4.80;;;28.10;50.70;;;;;;5019184;28;20217;-66
2023/06/30 12:17:42;;;;;;;31.77;6.07;;;28.10;50.00;;;;;;5010068;28;20309;-64
2023/06/30 12:20:10;;;;;;;22.07;4.77;;;28.20;50.00;;;;;;5013127;28;20200;-66
2023/06/30 12:22:41;;;;;;;35.37;6.13;;;28.20;50.00;;;;;;5014164;28;20208;-64
2023/06/30 12:25:11;;;;;;;24.17;5.23;;;28.20;50.40;;;;;;5026894;28;20209;-64
2023/06/30 12:27:42;;;;;;;29.80;5.20;;;28.20;49.70;;;;;;5027420;28;20201;-64
2023/06/30 12:30:18;;;;;;;30.70;5.70;;;28.20;49.70;;;;;;5027364;28;20264;-64
2023/06/30 12:32:47;;;;;;;31.00;5.70;;;28.30;49.70;;;;;;5018730;28;20215;-64
2023/06/30 12:35:14;;;;;;;35.40;6.50;;;28.30;49.80;;;;;;5007587;28;20201;-65
2023/06/30 12:37:44;;;;;;;26.63;5.30;;;28.30;48.90;;;;;;5008027;28;20925;-66
2023/06/30 12:40:13;;;;;;;25.53;5.03;;;28.30;47.70;;;;;;5019377;28;20259;-63